Time;durP1;ratioP1;P1;durP2;ratioP2;P2;SDS_P1;SDS_P2;PMS_P1;PMS_P2;Temp;Humidity;BMP_temperature;BMP_pressure;BME280_temperature;BME280_humidity;BME280_pressure;Samples;Min_cycle;Max_cycle;Signal;HPM_P1;HPM_P2
2022/04/07 00:00:25;;;;;;;27.10;4.25;;;;;;;;;;5035445;28;20123;-63
2022/04/07 00:02:51;;;;;;;27.30;4.38;;;;;;;;;;5062406;28;20052;-63
2022/04/07 00:05:17;;;;;;;25.23;3.72;;;;;;;;;;5035841;28;20044;-62
2022/04/07 00:07:43;;;;;;;20.83;3.20;;;;;;;;;;5051670;28;20147;-63
2022/04/07 00:10:09;;;;;;;19.92;4.50;;;;;;;;;;5049508;28;20034;-63
2022/04/07 00:12:37;;;;;;;20.35;3.35;;;;;;;;;;5050484;28;20041;-63
2022/04/07 00:15:03;;;;;;;24.73;3.78;;;;;;;;;;5032856;28;20041;-63
2022/04/07 00:17:29;;;;;;;23.52;4.15;;;;;;;;;;5049405;28;20147;-63
2022/04/07 00:19:56;;;;;;;19.33;3.30;;;;;;;;;;5041797;28;20049;-63
2022/04/07 00:22:22;;;;;;;23.90;4.25;;;;;;;;;;5031859;28;20443;-63
2022/04/07 00:24:48;;;;;;;23.02;3.33;;;;;;;;;;5064970;28;20045;-63
2022/04/07 00:27:14;;;;;;;20.10;2.97;;;;;;;;;;5051206;28;20036;-63
2022/04/07 00:29:40;;;;;;;19.67;4.40;;;;;;;;;;5052523;28;20037;-63
2022/04/07 00:32:07;;;;;;;24.65;4.40;;;;;;;;;;5068532;28;20076;-62
2022/04/07 00:34:33;;;;;;;25.27;4.53;;;;;;;;;;5049785;28;20053;-63
2022/04/07 00:36:59;;;;;;;27.80;5.35;;;;;;;;;;5053025;28;20131;-63
2022/04/07 00:39:25;;;;;;;23.05;4.47;;;;;;;;;;5053259;28;20051;-62
2022/04/07 00:41:51;;;;;;;25.60;4.93;;;;;;;;;;5053344;28;20041;-63
2022/04/07 00:44:18;;;;;;;25.83;6.22;;;;;;;;;;5052654;28;20037;-63
2022/04/07 00:46:44;;;;;;;28.92;5.57;;;;;;;;;;5053301;28;20130;-63
2022/04/07 00:49:10;;;;;;;28.42;5.65;;;;;;;;;;5053007;28;20116;-63
2022/04/07 00:51:40;;;;;;;23.45;4.35;;;;;;;;;;5034901;28;20480;-63
2022/04/07 00:54:07;;;;;;;30.02;6.00;;;;;;;;;;5053080;28;20509;-63
2022/04/07 00:56:35;;;;;;;22.88;3.95;;;;;;;;;;5051362;28;20049;-62
2022/04/07 00:59:01;;;;;;;22.17;5.65;;;;;;;;;;5069662;28;20346;-62
2022/04/07 01:01:28;;;;;;;33.47;5.93;;;;;;;;;;5068486;28;20052;-63
2022/04/07 01:03:55;;;;;;;23.05;4.53;;;;;;;;;;5070801;28;20049;-63
2022/04/07 01:06:21;;;;;;;30.83;5.45;;;;;;;;;;5067270;28;20128;-63
2022/04/07 01:08:47;;;;;;;38.90;5.68;;;;;;;;;;5052869;28;20308;-63
2022/04/07 01:11:14;;;;;;;29.23;5.13;;;;;;;;;;5050751;28;20392;-63
2022/04/07 01:13:45;;;;;;;32.30;5.63;;;;;;;;;;5049197;28;20461;-63
2022/04/07 01:16:11;;;;;;;27.25;6.28;;;;;;;;;;5052618;28;20033;-62
2022/04/07 01:18:38;;;;;;;32.60;5.93;;;;;;;;;;5052175;28;20110;-63
2022/04/07 01:21:04;;;;;;;26.55;5.00;;;;;;;;;;5048970;28;20059;-63
2022/04/07 01:23:34;;;;;;;37.63;5.80;;;;;;;;;;5034195;28;20063;-63
2022/04/07 01:26:02;;;;;;;39.05;7.93;;;;;;;;;;5050269;28;20085;-63
2022/04/07 01:28:28;;;;;;;31.38;5.57;;;;;;;;;;5052216;28;20519;-63
2022/04/07 01:30:54;;;;;;;42.45;7.95;;;;;;;;;;5032974;28;20103;-62
2022/04/07 01:33:20;;;;;;;34.88;6.82;;;;;;;;;;5065639;28;20093;-63
2022/04/07 01:35:47;;;;;;;33.25;6.32;;;;;;;;;;5051787;28;20099;-63
2022/04/07 01:38:13;;;;;;;29.92;6.30;;;;;;;;;;5052117;28;20056;-63
2022/04/07 01:40:39;;;;;;;36.38;6.47;;;;;;;;;;5066487;28;20128;-63
2022/04/07 01:43:07;;;;;;;38.92;6.68;;;;;;;;;;5067313;28;20048;-63
2022/04/07 01:45:34;;;;;;;37.95;6.72;;;;;;;;;;5052176;28;20041;-63
2022/04/07 01:48:02;;;;;;;35.50;7.22;;;;;;;;;;5051160;28;20114;-63
2022/04/07 01:50:29;;;;;;;36.58;6.57;;;;;;;;;;5049100;28;20044;-63
2022/04/07 01:52:57;;;;;;;39.15;6.03;;;;;;;;;;5051674;28;20127;-63
2022/04/07 01:55:23;;;;;;;41.15;7.13;;;;;;;;;;5051267;28;20499;-63
2022/04/07 01:57:50;;;;;;;43.97;5.55;;;;;;;;;;5052515;28;20047;-62
2022/04/07 02:00:16;;;;;;;32.70;6.03;;;;;;;;;;5052003;28;20116;-63
2022/04/07 02:02:42;;;;;;;39.75;5.28;;;;;;;;;;5032408;28;20064;-62
2022/04/07 02:05:11;;;;;;;45.63;7.38;;;;;;;;;;5051744;28;20041;-62
2022/04/07 02:07:37;;;;;;;28.70;5.60;;;;;;;;;;5052513;28;20037;-63
2022/04/07 02:10:05;;;;;;;37.35;5.95;;;;;;;;;;5066278;28;20127;-63
2022/04/07 02:12:33;;;;;;;36.05;5.32;;;;;;;;;;5050788;28;20048;-62
2022/04/07 02:15:00;;;;;;;38.25;6.20;;;;;;;;;;5065893;28;20045;-63
2022/04/07 02:17:26;;;;;;;35.22;5.45;;;;;;;;;;5049409;28;20036;-63
2022/04/07 02:19:53;;;;;;;36.70;10.00;;;;;;;;;;5054082;28;20048;-63
2022/04/07 02:22:20;;;;;;;34.55;7.85;;;;;;;;;;5031438;28;20120;-63
2022/04/07 02:24:47;;;;;;;32.10;6.30;;;;;;;;;;5050503;28;20132;-62
2022/04/07 02:27:13;;;;;;;35.03;5.68;;;;;;;;;;5048296;28;20037;-63
2022/04/07 02:29:40;;;;;;;36.25;7.20;;;;;;;;;;5069537;28;20052;-63
2022/04/07 02:32:06;;;;;;;37.20;7.07;;;;;;;;;;5050898;28;20045;-62
2022/04/07 02:34:33;;;;;;;30.77;5.93;;;;;;;;;;5051316;28;20400;-62
2022/04/07 02:36:59;;;;;;;33.50;5.50;;;;;;;;;;5050544;28;20094;-62
2022/04/07 02:39:25;;;;;;;29.70;5.05;;;;;;;;;;5033259;28;20053;-63
2022/04/07 02:41:51;;;;;;;42.17;6.57;;;;;;;;;;5064740;28;20492;-63
2022/04/07 02:44:18;;;;;;;29.52;6.28;;;;;;;;;;5032294;28;20053;-62
2022/04/07 02:46:44;;;;;;;29.42;5.57;;;;;;;;;;5066329;28;20045;-63
2022/04/07 02:49:10;;;;;;;34.60;5.82;;;;;;;;;;5050607;28;20068;-63
2022/04/07 02:51:36;;;;;;;31.15;5.75;;;;;;;;;;5049359;28;20415;-62
2022/04/07 02:54:03;;;;;;;29.67;5.30;;;;;;;;;;5051149;28;20037;-63
2022/04/07 02:56:29;;;;;;;32.30;6.15;;;;;;;;;;5051097;28;20036;-63
2022/04/07 02:58:56;;;;;;;27.17;6.70;;;;;;;;;;5050617;28;20048;-63
2022/04/07 03:01:22;;;;;;;34.20;7.65;;;;;;;;;;5033402;28;20051;-63
2022/04/07 03:03:49;;;;;;;32.17;6.35;;;;;;;;;;5032579;28;20047;-62
2022/04/07 03:06:16;;;;;;;32.60;6.72;;;;;;;;;;5064943;28;20396;-62
2022/04/07 03:08:43;;;;;;;34.35;5.43;;;;;;;;;;5036311;28;20629;-62
2022/04/07 03:11:09;;;;;;;30.67;5.60;;;;;;;;;;5065944;28;20044;-62
2022/04/07 03:13:37;;;;;;;26.50;5.88;;;;;;;;;;5062805;28;20044;-62
2022/04/07 03:16:04;;;;;;;27.05;5.10;;;;;;;;;;5032504;28;20044;-63
2022/04/07 03:18:30;;;;;;;37.10;5.57;;;;;;;;;;5050631;28;20392;-62
2022/04/07 03:20:56;;;;;;;35.08;6.03;;;;;;;;;;5050152;28;20439;-63
2022/04/07 03:23:22;;;;;;;35.42;5.70;;;;;;;;;;5033743;28;20120;-63
2022/04/07 03:25:48;;;;;;;30.83;6.90;;;;;;;;;;5062692;28;20391;-63
2022/04/07 03:28:14;;;;;;;33.78;7.00;;;;;;;;;;5034444;28;20453;-62
2022/04/07 03:30:41;;;;;;;33.60;7.38;;;;;;;;;;5048814;28;20054;-63
2022/04/07 03:33:07;;;;;;;34.45;5.93;;;;;;;;;;5062764;28;20485;-62
2022/04/07 03:35:33;;;;;;;30.17;5.93;;;;;;;;;;5061587;28;20132;-62
2022/04/07 03:38:00;;;;;;;34.95;7.10;;;;;;;;;;5030298;28;20592;-62
2022/04/07 03:40:26;;;;;;;27.50;6.10;;;;;;;;;;5029394;28;20163;-62
2022/04/07 03:42:52;;;;;;;30.90;5.28;;;;;;;;;;5029220;28;20048;-62
2022/04/07 03:45:19;;;;;;;38.72;7.10;;;;;;;;;;5026839;28;20060;-63
2022/04/07 03:47:45;;;;;;;42.45;7.93;;;;;;;;;;5061392;28;20057;-63
2022/04/07 03:50:11;;;;;;;33.10;5.97;;;;;;;;;;5030192;28;20184;-63
2022/04/07 03:52:38;;;;;;;33.63;6.18;;;;;;;;;;5030436;28;20382;-62
2022/04/07 03:55:05;;;;;;;41.88;6.75;;;;;;;;;;5060844;28;20052;-63
2022/04/07 03:57:31;;;;;;;43.58;7.10;;;;;;;;;;5030205;28;20455;-63
2022/04/07 03:59:57;;;;;;;41.85;7.22;;;;;;;;;;5030600;28;20388;-62
2022/04/07 04:02:23;;;;;;;55.00;9.60;;;;;;;;;;5033681;28;20473;-62
2022/04/07 04:04:50;;;;;;;46.33;7.93;;;;;;;;;;5063994;28;20477;-63
2022/04/07 04:07:16;;;;;;;57.85;10.38;;;;;;;;;;5034191;28;20485;-62
2022/04/07 04:09:42;;;;;;;47.78;7.93;;;;;;;;;;5033649;28;20041;-62
2022/04/07 04:12:09;;;;;;;58.10;8.20;;;;;;;;;;5065422;28;20080;-62
2022/04/07 04:14:35;;;;;;;58.75;8.75;;;;;;;;;;5033922;28;20115;-62
2022/04/07 04:17:01;;;;;;;44.95;8.27;;;;;;;;;;5033366;28;20041;-62
2022/04/07 04:19:27;;;;;;;54.45;7.88;;;;;;;;;;5034333;28;20053;-62
2022/04/07 04:21:53;;;;;;;58.05;9.93;;;;;;;;;;5031698;28;20102;-62
2022/04/07 04:24:19;;;;;;;41.47;8.68;;;;;;;;;;5032398;28;20046;-62
2022/04/07 04:26:46;;;;;;;47.97;7.72;;;;;;;;;;5032117;28;20397;-62
2022/04/07 04:29:12;;;;;;;51.83;8.80;;;;;;;;;;5031667;28;20636;-63
2022/04/07 04:31:38;;;;;;;52.20;9.35;;;;;;;;;;5016307;28;20049;-63
2022/04/07 04:34:04;;;;;;;62.30;9.30;;;;;;;;;;5034664;28;20416;-63
2022/04/07 04:36:32;;;;;;;58.05;8.65;;;;;;;;;;5054071;28;20040;-62
2022/04/07 04:38:59;;;;;;;45.60;7.57;;;;;;;;;;5055488;28;20403;-62
2022/04/07 04:41:25;;;;;;;65.53;8.75;;;;;;;;;;5053201;28;20511;-62
2022/04/07 04:43:52;;;;;;;55.40;8.07;;;;;;;;;;5052754;28;20087;-62
2022/04/07 04:46:18;;;;;;;54.25;9.52;;;;;;;;;;5050598;28;20488;-62
2022/04/07 04:48:44;;;;;;;52.30;8.65;;;;;;;;;;5053718;28;20040;-62
2022/04/07 04:51:10;;;;;;;51.17;8.23;;;;;;;;;;5052191;28;20114;-63
2022/04/07 04:53:36;;;;;;;51.67;9.00;;;;;;;;;;5051965;28;20045;-62
2022/04/07 04:56:03;;;;;;;49.90;9.25;;;;;;;;;;5053318;28;20037;-66
2022/04/07 04:58:29;;;;;;;50.25;8.65;;;;;;;;;;5048825;28;20049;-63
2022/04/07 05:00:56;;;;;;;55.55;9.45;;;;;;;;;;5049355;28;20045;-62
2022/04/07 05:03:22;;;;;;;38.05;8.70;;;;;;;;;;5052855;28;20060;-62
2022/04/07 05:05:49;;;;;;;32.70;5.55;;;;;;;;;;5051075;28;20037;-63
2022/04/07 05:08:15;;;;;;;29.98;5.13;;;;;;;;;;5052885;28;20124;-63
2022/04/07 05:10:41;;;;;;;29.90;5.38;;;;;;;;;;5053420;28;20052;-63
2022/04/07 05:13:07;;;;;;;33.22;5.10;;;;;;;;;;5051271;28;20049;-63
2022/04/07 05:15:35;;;;;;;29.33;4.78;;;;;;;;;;5054041;28;20392;-63
2022/04/07 05:18:02;;;;;;;27.10;4.05;;;;;;;;;;5052763;28;20174;-64
2022/04/07 05:20:28;;;;;;;26.08;4.38;;;;;;;;;;5054507;28;20131;-63
2022/04/07 05:22:54;;;;;;;21.02;3.47;;;;;;;;;;5054716;28;20040;-63
2022/04/07 05:25:20;;;;;;;15.65;2.83;;;;;;;;;;5035769;28;20044;-63
2022/04/07 05:27:46;;;;;;;16.38;3.47;;;;;;;;;;5069010;28;20040;-63
2022/04/07 05:30:15;;;;;;;18.50;2.55;;;;;;;;;;5033863;28;20052;-66
2022/04/07 05:32:42;;;;;;;11.35;2.25;;;;;;;;;;5068454;28;20052;-65
2022/04/07 05:35:09;;;;;;;12.65;1.83;;;;;;;;;;5052038;28;20492;-64
2022/04/07 05:37:36;;;;;;;15.00;2.20;;;;;;;;;;5050162;28;20050;-63
2022/04/07 05:40:02;;;;;;;15.05;2.22;;;;;;;;;;5027483;28;20384;-63
2022/04/07 05:42:28;;;;;;;13.43;2.75;;;;;;;;;;5015458;28;20111;-64
2022/04/07 05:44:54;;;;;;;13.65;1.88;;;;;;;;;;5022238;28;20131;-64
2022/04/07 05:47:20;;;;;;;9.88;1.70;;;;;;;;;;5053483;28;20080;-63
2022/04/07 05:49:47;;;;;;;15.15;2.90;;;;;;;;;;5021736;28;20041;-64
2022/04/07 05:52:13;;;;;;;13.75;1.80;;;;;;;;;;5047197;28;20041;-64
2022/04/07 05:54:39;;;;;;;15.27;1.88;;;;;;;;;;5019947;28;20052;-64
2022/04/07 05:57:06;;;;;;;8.07;1.60;;;;;;;;;;5028613;28;20064;-64
2022/04/07 05:59:32;;;;;;;15.63;2.15;;;;;;;;;;5050280;28;20365;-64
2022/04/07 06:01:58;;;;;;;14.57;2.58;;;;;;;;;;5049554;28;20059;-64
2022/04/07 06:04:24;;;;;;;17.08;1.90;;;;;;;;;;5048993;28;20057;-64
2022/04/07 06:06:51;;;;;;;13.90;1.63;;;;;;;;;;5049035;28;20107;-64
2022/04/07 06:09:17;;;;;;;8.85;1.52;;;;;;;;;;5047947;28;20064;-63
2022/04/07 06:11:43;;;;;;;16.50;2.00;;;;;;;;;;5047022;28;20388;-64
2022/04/07 06:14:09;;;;;;;8.77;1.63;;;;;;;;;;5031392;28;20132;-64
2022/04/07 06:16:35;;;;;;;10.75;1.55;;;;;;;;;;5047878;28;20113;-64
2022/04/07 06:19:01;;;;;;;13.30;2.30;;;;;;;;;;5049361;28;20037;-63
2022/04/07 06:21:29;;;;;;;12.35;1.58;;;;;;;;;;5048976;28;20105;-63
2022/04/07 06:23:57;;;;;;;13.90;1.73;;;;;;;;;;5059931;28;20045;-64
2022/04/07 06:26:23;;;;;;;9.95;1.73;;;;;;;;;;5045947;28;20471;-64
2022/04/07 06:28:50;;;;;;;10.35;1.75;;;;;;;;;;5048546;28;20760;-64
2022/04/07 06:31:16;;;;;;;11.40;1.83;;;;;;;;;;5031702;28;20056;-64
2022/04/07 06:33:42;;;;;;;16.13;1.35;;;;;;;;;;5049786;28;20068;-63
2022/04/07 06:36:08;;;;;;;12.45;1.65;;;;;;;;;;5061874;28;20421;-64
2022/04/07 06:38:34;;;;;;;12.27;1.92;;;;;;;;;;5048720;28;20049;-63
2022/04/07 06:41:01;;;;;;;11.73;2.85;;;;;;;;;;5049801;28;20037;-64
2022/04/07 06:43:27;;;;;;;14.35;1.90;;;;;;;;;;5029577;28;20154;-64
2022/04/07 06:45:53;;;;;;;15.68;1.90;;;;;;;;;;5043833;28;20481;-64
2022/04/07 06:48:20;;;;;;;12.00;2.25;;;;;;;;;;5049674;28;20503;-63
2022/04/07 06:50:46;;;;;;;10.68;1.85;;;;;;;;;;5047247;28;20044;-64
2022/04/07 06:53:12;;;;;;;9.13;1.45;;;;;;;;;;5048529;28;20373;-63
2022/04/07 06:55:39;;;;;;;17.25;2.20;;;;;;;;;;5049233;28;20039;-63
2022/04/07 06:58:06;;;;;;;15.35;2.28;;;;;;;;;;5029849;28;20087;-64
2022/04/07 07:00:34;;;;;;;12.35;1.65;;;;;;;;;;5062145;28;20064;-64
2022/04/07 07:03:01;;;;;;;14.63;2.72;;;;;;;;;;5059963;28;20045;-64
2022/04/07 07:05:29;;;;;;;16.52;1.70;;;;;;;;;;5045442;28;20397;-64
2022/04/07 07:07:56;;;;;;;16.48;2.97;;;;;;;;;;5047144;28;20045;-64
2022/04/07 07:10:28;;;;;;;17.65;2.78;;;;;;;;;;5030658;28;20044;-64
2022/04/07 07:12:54;;;;;;;17.67;2.50;;;;;;;;;;5061139;28;20102;-64
2022/04/07 07:15:21;;;;;;;15.73;3.95;;;;;;;;;;5030338;28;20049;-64
2022/04/07 07:17:47;;;;;;;15.45;1.88;;;;;;;;;;5047573;28;20065;-64
2022/04/07 07:20:14;;;;;;;13.43;2.28;;;;;;;;;;5063696;28;20124;-64
2022/04/07 07:22:42;;;;;;;15.43;1.83;;;;;;;;;;5048827;28;20037;-64
2022/04/07 07:25:09;;;;;;;15.15;2.05;;;;;;;;;;5060340;28;20049;-64
2022/04/07 07:27:37;;;;;;;21.85;2.25;;;;;;;;;;5048595;28;20132;-64
2022/04/07 07:30:04;;;;;;;11.60;2.42;;;;;;;;;;5030755;28;20053;-64
2022/04/07 07:32:30;;;;;;;8.38;1.50;;;;;;;;;;5029725;28;20087;-64
2022/04/07 07:34:59;;;;;;;17.83;2.50;;;;;;;;;;5048118;28;20103;-64
2022/04/07 07:37:25;;;;;;;16.38;3.08;;;;;;;;;;5043703;28;20439;-64
2022/04/07 07:39:51;;;;;;;13.93;2.85;;;;;;;;;;5045083;28;20064;-64
2022/04/07 07:42:18;;;;;;;18.50;2.83;;;;;;;;;;5048071;28;20045;-64
2022/04/07 07:44:44;;;;;;;15.25;3.25;;;;;;;;;;5027554;28;20051;-64
2022/04/07 07:47:10;;;;;;;15.48;2.50;;;;;;;;;;5048277;28;20077;-64
2022/04/07 07:49:36;;;;;;;17.17;2.85;;;;;;;;;;5048844;28;20049;-64
2022/04/07 07:52:03;;;;;;;21.10;2.47;;;;;;;;;;5062875;28;20084;-64
2022/04/07 07:54:29;;;;;;;11.27;1.92;;;;;;;;;;5047635;28;20037;-64
2022/04/07 07:56:55;;;;;;;11.82;2.22;;;;;;;;;;5028947;28;20512;-64
2022/04/07 07:59:21;;;;;;;14.52;2.65;;;;;;;;;;5045072;28;20407;-64
2022/04/07 08:01:48;;;;;;;9.85;1.90;;;;;;;;;;5028608;28;20045;-64
2022/04/07 08:04:15;;;;;;;16.42;2.88;;;;;;;;;;5030002;28;20143;-64
2022/04/07 08:06:41;;;;;;;13.48;2.28;;;;;;;;;;5028706;28;20522;-64
2022/04/07 08:09:10;;;;;;;11.57;1.88;;;;;;;;;;5060948;28;20163;-64
2022/04/07 08:11:36;;;;;;;15.68;3.00;;;;;;;;;;5046760;28;20049;-64
2022/04/07 08:14:02;;;;;;;10.27;2.38;;;;;;;;;;5029206;28;20148;-64
2022/04/07 08:16:30;;;;;;;13.90;2.40;;;;;;;;;;5047357;28;20075;-64
2022/04/07 08:18:56;;;;;;;12.60;3.10;;;;;;;;;;5048137;28;20044;-64
2022/04/07 08:21:22;;;;;;;11.27;1.77;;;;;;;;;;5045147;28;20037;-64
2022/04/07 08:23:49;;;;;;;8.30;1.77;;;;;;;;;;5046731;28;20044;-64
2022/04/07 08:26:15;;;;;;;11.48;2.22;;;;;;;;;;5044575;28;20045;-64
2022/04/07 08:28:42;;;;;;;10.27;2.08;;;;;;;;;;5046591;28;20044;-64
2022/04/07 08:31:08;;;;;;;19.52;2.33;;;;;;;;;;5050438;28;20060;-64
2022/04/07 08:33:34;;;;;;;16.17;3.85;;;;;;;;;;5050194;28;20499;-65
2022/04/07 08:36:00;;;;;;;12.98;2.50;;;;;;;;;;5028043;28;20511;-64
2022/04/07 08:38:27;;;;;;;11.38;2.00;;;;;;;;;;5028715;28;20081;-64
2022/04/07 08:40:53;;;;;;;17.27;3.08;;;;;;;;;;5012493;28;20056;-64
2022/04/07 08:43:19;;;;;;;15.32;2.28;;;;;;;;;;5029944;28;20521;-64
2022/04/07 08:45:45;;;;;;;16.02;2.70;;;;;;;;;;5030595;28;20132;-64
2022/04/07 08:48:12;;;;;;;9.77;1.70;;;;;;;;;;5031135;28;20067;-65
2022/04/07 08:50:40;;;;;;;12.30;2.13;;;;;;;;;;5033175;28;20045;-64
2022/04/07 08:53:07;;;;;;;13.05;1.85;;;;;;;;;;5034129;28;20108;-65
2022/04/07 08:55:33;;;;;;;12.63;2.13;;;;;;;;;;5034261;28;20038;-65
2022/04/07 08:58:00;;;;;;;18.27;3.25;;;;;;;;;;5033496;28;20087;-65
2022/04/07 09:00:26;;;;;;;13.82;2.22;;;;;;;;;;5033905;28;20080;-65
2022/04/07 09:02:53;;;;;;;14.63;2.20;;;;;;;;;;5034315;28;20064;-65
2022/04/07 09:05:23;;;;;;;16.08;2.50;;;;;;;;;;5033102;28;20049;-65
2022/04/07 09:07:50;;;;;;;12.88;2.22;;;;;;;;;;5065465;28;20048;-64
2022/04/07 09:10:19;;;;;;;12.73;2.45;;;;;;;;;;5032747;28;20050;-64
2022/04/07 09:12:45;;;;;;;17.17;2.63;;;;;;;;;;5032528;28;20046;-64
2022/04/07 09:15:13;;;;;;;15.52;2.60;;;;;;;;;;5033825;28;20072;-64
2022/04/07 09:17:50;;;;;;;13.70;2.67;;;;;;;;;;5032729;28;20077;-64
2022/04/07 09:20:16;;;;;;;16.58;3.10;;;;;;;;;;5065536;28;20448;-65
2022/04/07 09:22:42;;;;;;;16.13;2.75;;;;;;;;;;5033271;28;20034;-65
2022/04/07 09:25:09;;;;;;;16.25;3.15;;;;;;;;;;5033143;28;20396;-64
2022/04/07 09:27:39;;;;;;;19.13;2.55;;;;;;;;;;5032971;28;20140;-63
2022/04/07 09:30:08;;;;;;;12.57;2.28;;;;;;;;;;5033050;28;20038;-64
2022/04/07 09:32:40;;;;;;;17.13;4.03;;;;;;;;;;5032666;28;20037;-64
2022/04/07 09:35:07;;;;;;;14.88;2.65;;;;;;;;;;5041955;28;20110;-64
2022/04/07 09:37:34;;;;;;;17.70;2.60;;;;;;;;;;5049374;28;20053;-64
2022/04/07 09:40:09;;;;;;;16.40;3.53;;;;;;;;;;5052293;28;20053;-64
2022/04/07 09:42:35;;;;;;;16.05;2.85;;;;;;;;;;5053108;28;20049;-64
2022/04/07 09:45:02;;;;;;;18.02;3.20;;;;;;;;;;5053131;28;20116;-64
2022/04/07 09:47:41;;;;;;;14.32;2.78;;;;;;;;;;5052321;28;20040;-64
2022/04/07 09:50:08;;;;;;;9.98;2.33;;;;;;;;;;5052907;28;20087;-64
2022/04/07 09:52:39;;;;;;;18.90;2.83;;;;;;;;;;5067658;28;20045;-64
2022/04/07 09:55:08;;;;;;;14.57;2.45;;;;;;;;;;5068155;28;20087;-64
2022/04/07 09:57:35;;;;;;;13.98;2.83;;;;;;;;;;5067656;28;20049;-64
2022/04/07 10:00:03;;;;;;;12.88;3.13;;;;;;;;;;5050833;28;20049;-64
2022/04/07 10:02:30;;;;;;;16.20;2.50;;;;;;;;;;5052294;28;20083;-64
2022/04/07 10:04:57;;;;;;;17.15;2.92;;;;;;;;;;5068108;28;20473;-64
2022/04/07 10:07:25;;;;;;;13.63;4.28;;;;;;;;;;5066421;28;20045;-64
2022/04/07 10:09:51;;;;;;;13.73;2.58;;;;;;;;;;5030600;28;20256;-64
2022/04/07 10:12:19;;;;;;;16.80;3.03;;;;;;;;;;5070437;28;20049;-64
2022/04/07 10:14:45;;;;;;;17.48;3.60;;;;;;;;;;5066828;28;20072;-64
2022/04/07 10:17:13;;;;;;;18.67;3.25;;;;;;;;;;5067343;28;20133;-64
2022/04/07 10:19:49;;;;;;;26.05;3.83;;;;;;;;;;5068071;28;20420;-65
2022/04/07 10:22:15;;;;;;;18.23;3.10;;;;;;;;;;5048102;28;20036;-65
2022/04/07 10:24:47;;;;;;;21.17;3.30;;;;;;;;;;5034554;28;20122;-64
2022/04/07 10:27:14;;;;;;;23.42;4.00;;;;;;;;;;5051729;28;20204;-64
2022/04/07 10:29:40;;;;;;;22.60;3.60;;;;;;;;;;5051472;28;20456;-64
2022/04/07 10:32:09;;;;;;;22.13;3.65;;;;;;;;;;5051923;28;20490;-64
2022/04/07 10:34:35;;;;;;;18.83;3.25;;;;;;;;;;5051218;28;20068;-64
2022/04/07 10:37:02;;;;;;;22.58;3.05;;;;;;;;;;5033759;28;20102;-64
2022/04/07 10:39:32;;;;;;;23.02;4.10;;;;;;;;;;5051514;28;20041;-64
2022/04/07 10:41:59;;;;;;;20.83;3.25;;;;;;;;;;5050822;28;20033;-64
2022/04/07 10:44:26;;;;;;;19.90;3.70;;;;;;;;;;5066585;28;20057;-64
2022/04/07 10:47:02;;;;;;;20.95;2.97;;;;;;;;;;5032310;28;20056;-64
2022/04/07 10:49:30;;;;;;;19.23;3.35;;;;;;;;;;5047334;28;20041;-64
2022/04/07 10:51:56;;;;;;;20.77;3.83;;;;;;;;;;5033485;28;20059;-64
2022/04/07 10:54:24;;;;;;;22.65;3.40;;;;;;;;;;5033903;28;20103;-64
2022/04/07 10:56:51;;;;;;;26.13;4.43;;;;;;;;;;5051026;28;20045;-64
2022/04/07 10:59:18;;;;;;;19.27;4.63;;;;;;;;;;5051902;28;20079;-64
2022/04/07 11:01:46;;;;;;;21.65;3.72;;;;;;;;;;5051815;28;20126;-65
2022/04/07 11:04:18;;;;;;;18.85;3.85;;;;;;;;;;5050795;28;20039;-64
2022/04/07 11:07:03;;;;;;;20.42;3.63;;;;;;;;;;5051420;28;20040;-64
2022/04/07 11:09:48;;;;;;;18.50;3.58;;;;;;;;;;5051239;28;20052;-64
2022/04/07 11:12:20;;;;;;;13.80;3.65;;;;;;;;;;5051382;28;20043;-64
2022/04/07 11:14:47;;;;;;;25.38;4.18;;;;;;;;;;5051646;28;20036;-64
2022/04/07 11:17:16;;;;;;;34.15;4.82;;;;;;;;;;5050602;28;20128;-64
2022/04/07 11:19:50;;;;;;;10.13;3.00;;;;;;;;;;5066896;28;20356;-64
2022/04/07 11:22:19;;;;;;;18.48;3.55;;;;;;;;;;5051532;28;20087;-64
2022/04/07 11:24:47;;;;;;;20.35;4.57;;;;;;;;;;5050488;28;20052;-64
2022/04/07 11:27:31;;;;;;;16.60;3.58;;;;;;;;;;5066502;28;20065;-64
2022/04/07 11:30:05;;;;;;;16.85;3.47;;;;;;;;;;5051135;28;20048;-64
2022/04/07 11:32:31;;;;;;;20.15;3.10;;;;;;;;;;5065947;28;20045;-64
2022/04/07 11:35:00;;;;;;;12.05;2.75;;;;;;;;;;5047169;28;20049;-64
2022/04/07 11:37:26;;;;;;;16.55;3.22;;;;;;;;;;5051144;28;20436;-64
2022/04/07 11:39:53;;;;;;;15.20;3.42;;;;;;;;;;5065697;28;20052;-64
2022/04/07 11:42:21;;;;;;;12.52;3.25;;;;;;;;;;5050821;28;20092;-64
2022/04/07 11:44:48;;;;;;;20.17;3.22;;;;;;;;;;5051178;28;20120;-64
2022/04/07 11:47:24;;;;;;;17.48;3.28;;;;;;;;;;5050311;28;20052;-64
2022/04/07 11:49:50;;;;;;;14.13;2.97;;;;;;;;;;5066662;28;20453;-64
2022/04/07 11:52:22;;;;;;;11.00;2.30;;;;;;;;;;5049991;28;20443;-64
2022/04/07 11:54:48;;;;;;;11.35;2.40;;;;;;;;;;5050933;28;20060;-64
2022/04/07 11:57:15;;;;;;;16.98;3.15;;;;;;;;;;5066332;28;20494;-64
2022/04/07 11:59:42;;;;;;;22.65;3.38;;;;;;;;;;5049898;28;20044;-64
2022/04/07 12:02:08;;;;;;;12.93;3.00;;;;;;;;;;5065891;28;20060;-64
2022/04/07 12:04:34;;;;;;;17.98;3.15;;;;;;;;;;5066435;28;20049;-64
2022/04/07 12:07:02;;;;;;;14.98;2.58;;;;;;;;;;5065178;28;20519;-64
2022/04/07 12:09:28;;;;;;;12.15;2.90;;;;;;;;;;5066405;28;20044;-64
2022/04/07 12:11:54;;;;;;;12.68;2.20;;;;;;;;;;5050182;28;20049;-65
2022/04/07 12:14:25;;;;;;;11.32;2.47;;;;;;;;;;5065623;28;20072;-65
2022/04/07 12:16:51;;;;;;;12.10;2.15;;;;;;;;;;5050583;28;20041;-64
2022/04/07 12:19:18;;;;;;;20.60;4.53;;;;;;;;;;5051006;28;20202;-64
2022/04/07 12:21:56;;;;;;;9.02;1.80;;;;;;;;;;5051258;28;20045;-65
2022/04/07 12:24:22;;;;;;;14.85;2.40;;;;;;;;;;5054711;28;20049;-64
2022/04/07 12:26:49;;;;;;;13.65;3.08;;;;;;;;;;5054906;28;20095;-64
2022/04/07 12:29:17;;;;;;;13.30;3.20;;;;;;;;;;5053712;28;20114;-65
2022/04/07 12:31:43;;;;;;;13.98;2.83;;;;;;;;;;5037005;28;20075;-65
2022/04/07 12:34:12;;;;;;;17.80;3.83;;;;;;;;;;5053717;28;20063;-65
2022/04/07 12:36:39;;;;;;;18.13;4.03;;;;;;;;;;5069640;28;20075;-64
2022/04/07 12:39:05;;;;;;;20.98;3.78;;;;;;;;;;5069606;28;20124;-64
2022/04/07 12:41:39;;;;;;;22.60;3.47;;;;;;;;;;5053768;28;20044;-64
2022/04/07 12:44:06;;;;;;;14.25;2.47;;;;;;;;;;5036139;28;20045;-65
2022/04/07 12:46:43;;;;;;;12.95;2.05;;;;;;;;;;5054068;28;20099;-64
2022/04/07 12:49:09;;;;;;;14.30;2.42;;;;;;;;;;5053642;28;20063;-64
2022/04/07 12:51:36;;;;;;;16.35;2.95;;;;;;;;;;5054323;28;20041;-64
2022/04/07 12:54:13;;;;;;;19.48;2.92;;;;;;;;;;5053959;28;20087;-64
2022/04/07 12:56:40;;;;;;;7.10;1.50;;;;;;;;;;5053306;28;20102;-64
2022/04/07 12:59:09;;;;;;;11.77;2.67;;;;;;;;;;5036231;28;20060;-64
2022/04/07 13:01:36;;;;;;;10.57;1.83;;;;;;;;;;5054058;28;20025;-65
2022/04/07 13:04:04;;;;;;;8.77;2.75;;;;;;;;;;5065817;28;20095;-65
2022/04/07 13:06:32;;;;;;;11.27;1.98;;;;;;;;;;5053964;28;20059;-65
2022/04/07 13:08:58;;;;;;;8.38;1.60;;;;;;;;;;5069090;28;20484;-64
2022/04/07 13:11:36;;;;;;;13.70;2.22;;;;;;;;;;5049635;28;20037;-65
2022/04/07 13:14:03;;;;;;;12.00;2.97;;;;;;;;;;5035874;28;20045;-65
2022/04/07 13:16:29;;;;;;;9.23;1.65;;;;;;;;;;5030778;28;20056;-64
2022/04/07 13:18:55;;;;;;;16.45;2.70;;;;;;;;;;5053874;28;20452;-64
2022/04/07 13:21:22;;;;;;;11.88;2.30;;;;;;;;;;5046799;28;20174;-64
2022/04/07 13:23:48;;;;;;;10.00;2.30;;;;;;;;;;5027252;28;20053;-64
2022/04/07 13:26:14;;;;;;;11.18;1.42;;;;;;;;;;5046625;28;20037;-64
2022/04/07 13:28:40;;;;;;;7.55;1.42;;;;;;;;;;5045830;28;20142;-64
2022/04/07 13:31:07;;;;;;;11.98;1.70;;;;;;;;;;5028960;28;20044;-65
2022/04/07 13:33:34;;;;;;;9.38;1.40;;;;;;;;;;5042989;28;20128;-64
2022/04/07 13:36:01;;;;;;;12.13;2.03;;;;;;;;;;5068330;28;20052;-64
2022/04/07 13:38:27;;;;;;;11.98;2.75;;;;;;;;;;5067809;28;20063;-64
2022/04/07 13:40:54;;;;;;;11.40;1.77;;;;;;;;;;5035507;28;20132;-64
2022/04/07 13:43:21;;;;;;;16.60;2.50;;;;;;;;;;5053568;28;20049;-64
2022/04/07 13:45:47;;;;;;;10.27;1.83;;;;;;;;;;5052508;28;20049;-65
2022/04/07 13:48:13;;;;;;;7.53;1.50;;;;;;;;;;5053267;28;20033;-65
2022/04/07 13:50:40;;;;;;;15.25;2.72;;;;;;;;;;5053064;28;20504;-65
2022/04/07 13:53:07;;;;;;;14.85;2.72;;;;;;;;;;5052226;28;20041;-65
2022/04/07 13:55:34;;;;;;;14.45;2.83;;;;;;;;;;5049018;28;20116;-65
2022/04/07 13:58:00;;;;;;;12.48;2.00;;;;;;;;;;5034832;28;20041;-64
2022/04/07 14:00:26;;;;;;;11.68;2.38;;;;;;;;;;5053067;28;20125;-64
2022/04/07 14:02:53;;;;;;;18.58;3.38;;;;;;;;;;5060422;28;20066;-65
2022/04/07 14:05:19;;;;;;;20.48;3.15;;;;;;;;;;5052694;28;20071;-65
2022/04/07 14:07:45;;;;;;;18.25;3.50;;;;;;;;;;5051704;28;20044;-65
2022/04/07 14:10:13;;;;;;;15.98;3.08;;;;;;;;;;5052312;28;20072;-65
2022/04/07 14:12:39;;;;;;;19.67;3.33;;;;;;;;;;5065779;28;20110;-65
2022/04/07 14:15:06;;;;;;;21.25;3.03;;;;;;;;;;5051703;28;20116;-65
2022/04/07 14:17:32;;;;;;;18.75;3.28;;;;;;;;;;5030577;28;20037;-65
2022/04/07 14:19:58;;;;;;;17.17;3.08;;;;;;;;;;5050087;28;20049;-65
2022/04/07 14:22:24;;;;;;;18.23;2.88;;;;;;;;;;5033313;28;20128;-65
2022/04/07 14:24:51;;;;;;;17.90;3.13;;;;;;;;;;5038642;28;20045;-65
2022/04/07 14:27:18;;;;;;;17.60;3.40;;;;;;;;;;5054451;28;20080;-65
2022/04/07 14:29:44;;;;;;;21.27;3.65;;;;;;;;;;5066792;28;20119;-65